sensor_id;sensor_type;location;lat;lon;timestamp;P1;durP1;ratioP1;P2;durP2;ratioP2
23682;SDS011;24897;53.514;10.482;2022-10-18T00:02:03;51.60;;;38.67;;
23682;SDS011;24897;53.514;10.482;2022-10-18T00:04:48;50.57;;;37.37;;
23682;SDS011;24897;53.514;10.482;2022-10-18T00:07:32;44.17;;;35.90;;
23682;SDS011;24897;53.514;10.482;2022-10-18T00:10:16;52.77;;;38.33;;
23682;SDS011;24897;53.514;10.482;2022-10-18T00:13:01;50.70;;;38.70;;
23682;SDS011;24897;53.514;10.482;2022-10-18T00:15:53;48.30;;;37.10;;
23682;SDS011;24897;53.514;10.482;2022-10-18T00:18:39;54.10;;;38.47;;
23682;SDS011;24897;53.514;10.482;2022-10-18T00:21:24;44.93;;;36.30;;
23682;SDS011;24897;53.514;10.482;2022-10-18T00:24:08;51.23;;;39.40;;
23682;SDS011;24897;53.514;10.482;2022-10-18T00:26:52;44.57;;;36.33;;
23682;SDS011;24897;53.514;10.482;2022-10-18T00:29:37;54.70;;;39.27;;
23682;SDS011;24897;53.514;10.482;2022-10-18T00:32:20;50.10;;;36.83;;
23682;SDS011;24897;53.514;10.482;2022-10-18T00:35:05;51.60;;;36.53;;
23682;SDS011;24897;53.514;10.482;2022-10-18T00:37:50;48.37;;;37.73;;
23682;SDS011;24897;53.514;10.482;2022-10-18T00:40:35;55.47;;;38.57;;
23682;SDS011;24897;53.514;10.482;2022-10-18T00:43:19;49.40;;;36.73;;
23682;SDS011;24897;53.514;10.482;2022-10-18T00:46:03;46.23;;;36.10;;
23682;SDS011;24897;53.514;10.482;2022-10-18T00:48:48;45.77;;;35.70;;
23682;SDS011;24897;53.514;10.482;2022-10-18T00:51:41;50.60;;;37.13;;
23682;SDS011;24897;53.514;10.482;2022-10-18T00:54:40;56.37;;;38.30;;
23682;SDS011;24897;53.514;10.482;2022-10-18T00:57:26;47.67;;;36.80;;
23682;SDS011;24897;53.514;10.482;2022-10-18T01:00:11;52.23;;;37.37;;
23682;SDS011;24897;53.514;10.482;2022-10-18T01:02:56;47.43;;;36.30;;
23682;SDS011;24897;53.514;10.482;2022-10-18T01:05:42;55.17;;;38.93;;
23682;SDS011;24897;53.514;10.482;2022-10-18T01:14:45;55.13;;;39.03;;
23682;SDS011;24897;53.514;10.482;2022-10-18T01:17:51;49.70;;;37.57;;
23682;SDS011;24897;53.514;10.482;2022-10-18T01:27:05;55.07;;;38.87;;
23682;SDS011;24897;53.514;10.482;2022-10-18T01:36:18;55.50;;;37.97;;
23682;SDS011;24897;53.514;10.482;2022-10-18T01:39:07;49.30;;;37.97;;
23682;SDS011;24897;53.514;10.482;2022-10-18T01:41:58;47.23;;;37.33;;
23682;SDS011;24897;53.514;10.482;2022-10-18T01:44:45;52.03;;;37.87;;
23682;SDS011;24897;53.514;10.482;2022-10-18T01:47:30;59.10;;;39.23;;
23682;SDS011;24897;53.514;10.482;2022-10-18T01:50:21;61.33;;;42.67;;
23682;SDS011;24897;53.514;10.482;2022-10-18T01:53:26;61.20;;;40.73;;
23682;SDS011;24897;53.514;10.482;2022-10-18T01:56:16;51.67;;;38.73;;
23682;SDS011;24897;53.514;10.482;2022-10-18T01:59:07;53.20;;;39.53;;
23682;SDS011;24897;53.514;10.482;2022-10-18T02:02:16;53.87;;;38.93;;
23682;SDS011;24897;53.514;10.482;2022-10-18T02:08:38;54.87;;;39.30;;
23682;SDS011;24897;53.514;10.482;2022-10-18T02:11:29;56.83;;;39.50;;
23682;SDS011;24897;53.514;10.482;2022-10-18T02:14:15;66.53;;;43.77;;
23682;SDS011;24897;53.514;10.482;2022-10-18T02:17:02;68.40;;;45.37;;
23682;SDS011;24897;53.514;10.482;2022-10-18T02:19:50;57.40;;;41.53;;
23682;SDS011;24897;53.514;10.482;2022-10-18T02:22:38;64.67;;;43.27;;
23682;SDS011;24897;53.514;10.482;2022-10-18T02:25:26;54.50;;;40.73;;
23682;SDS011;24897;53.514;10.482;2022-10-18T02:28:12;75.80;;;46.23;;
23682;SDS011;24897;53.514;10.482;2022-10-18T02:34:05;55.40;;;39.67;;
23682;SDS011;24897;53.514;10.482;2022-10-18T02:37:00;55.10;;;39.27;;
23682;SDS011;24897;53.514;10.482;2022-10-18T02:39:45;53.03;;;40.60;;
23682;SDS011;24897;53.514;10.482;2022-10-18T02:42:32;54.07;;;39.27;;
23682;SDS011;24897;53.514;10.482;2022-10-18T02:45:18;52.57;;;37.80;;
23682;SDS011;24897;53.514;10.482;2022-10-18T02:48:03;53.40;;;39.37;;
23682;SDS011;24897;53.514;10.482;2022-10-18T02:50:47;59.10;;;41.10;;
23682;SDS011;24897;53.514;10.482;2022-10-18T02:53:31;57.17;;;40.03;;
23682;SDS011;24897;53.514;10.482;2022-10-18T02:56:16;51.60;;;38.03;;
23682;SDS011;24897;53.514;10.482;2022-10-18T02:59:00;59.93;;;41.60;;
23682;SDS011;24897;53.514;10.482;2022-10-18T03:01:47;59.47;;;41.63;;
23682;SDS011;24897;53.514;10.482;2022-10-18T03:04:31;61.10;;;42.90;;
23682;SDS011;24897;53.514;10.482;2022-10-18T03:07:15;58.07;;;40.43;;
23682;SDS011;24897;53.514;10.482;2022-10-18T03:09:59;55.97;;;41.20;;
23682;SDS011;24897;53.514;10.482;2022-10-18T03:12:44;54.73;;;39.70;;
23682;SDS011;24897;53.514;10.482;2022-10-18T03:15:28;66.90;;;43.73;;
23682;SDS011;24897;53.514;10.482;2022-10-18T03:18:12;65.93;;;43.37;;
23682;SDS011;24897;53.514;10.482;2022-10-18T03:20:57;83.37;;;48.70;;
23682;SDS011;24897;53.514;10.482;2022-10-18T03:23:41;103.43;;;51.63;;
23682;SDS011;24897;53.514;10.482;2022-10-18T03:26:26;78.63;;;48.00;;
23682;SDS011;24897;53.514;10.482;2022-10-18T03:29:11;74.43;;;46.37;;
23682;SDS011;24897;53.514;10.482;2022-10-18T03:31:55;72.80;;;44.87;;
23682;SDS011;24897;53.514;10.482;2022-10-18T03:34:39;68.97;;;46.40;;
23682;SDS011;24897;53.514;10.482;2022-10-18T03:37:23;169.57;;;49.17;;
23682;SDS011;24897;53.514;10.482;2022-10-18T03:40:07;253.73;;;56.63;;
23682;SDS011;24897;53.514;10.482;2022-10-18T03:42:51;127.40;;;48.73;;
23682;SDS011;24897;53.514;10.482;2022-10-18T03:45:35;164.53;;;50.10;;
23682;SDS011;24897;53.514;10.482;2022-10-18T03:48:19;71.37;;;44.63;;
23682;SDS011;24897;53.514;10.482;2022-10-18T03:51:04;88.20;;;47.67;;
23682;SDS011;24897;53.514;10.482;2022-10-18T03:53:48;59.83;;;42.40;;
23682;SDS011;24897;53.514;10.482;2022-10-18T03:56:32;204.60;;;51.50;;
23682;SDS011;24897;53.514;10.482;2022-10-18T03:59:16;58.13;;;42.50;;
23682;SDS011;24897;53.514;10.482;2022-10-18T04:02:00;67.73;;;43.70;;
23682;SDS011;24897;53.514;10.482;2022-10-18T04:04:44;73.27;;;43.73;;
23682;SDS011;24897;53.514;10.482;2022-10-18T04:07:29;108.63;;;46.70;;
23682;SDS011;24897;53.514;10.482;2022-10-18T04:10:13;76.47;;;44.83;;
23682;SDS011;24897;53.514;10.482;2022-10-18T04:12:57;60.77;;;43.60;;
23682;SDS011;24897;53.514;10.482;2022-10-18T04:15:41;82.47;;;46.67;;
23682;SDS011;24897;53.514;10.482;2022-10-18T04:18:25;102.93;;;50.33;;
23682;SDS011;24897;53.514;10.482;2022-10-18T04:21:09;57.03;;;43.87;;
23682;SDS011;24897;53.514;10.482;2022-10-18T04:23:54;55.63;;;42.00;;
23682;SDS011;24897;53.514;10.482;2022-10-18T04:26:38;69.87;;;46.27;;
23682;SDS011;24897;53.514;10.482;2022-10-18T04:29:22;62.33;;;44.27;;
23682;SDS011;24897;53.514;10.482;2022-10-18T04:32:06;59.40;;;44.00;;
23682;SDS011;24897;53.514;10.482;2022-10-18T04:34:50;62.87;;;45.30;;
23682;SDS011;24897;53.514;10.482;2022-10-18T04:37:34;92.10;;;48.17;;
23682;SDS011;24897;53.514;10.482;2022-10-18T04:40:19;59.27;;;44.17;;
23682;SDS011;24897;53.514;10.482;2022-10-18T04:43:03;58.87;;;44.07;;
23682;SDS011;24897;53.514;10.482;2022-10-18T04:45:47;65.10;;;47.77;;
23682;SDS011;24897;53.514;10.482;2022-10-18T04:48:33;80.13;;;46.80;;
23682;SDS011;24897;53.514;10.482;2022-10-18T04:51:18;77.53;;;46.77;;
23682;SDS011;24897;53.514;10.482;2022-10-18T04:54:02;142.07;;;53.47;;
23682;SDS011;24897;53.514;10.482;2022-10-18T04:56:47;226.57;;;58.60;;
23682;SDS011;24897;53.514;10.482;2022-10-18T04:59:31;101.00;;;50.70;;
23682;SDS011;24897;53.514;10.482;2022-10-18T05:02:15;181.23;;;58.30;;
23682;SDS011;24897;53.514;10.482;2022-10-18T05:04:59;160.20;;;58.73;;
23682;SDS011;24897;53.514;10.482;2022-10-18T05:07:43;144.53;;;60.23;;
23682;SDS011;24897;53.514;10.482;2022-10-18T05:10:27;116.30;;;56.47;;
23682;SDS011;24897;53.514;10.482;2022-10-18T05:13:12;132.40;;;59.93;;
23682;SDS011;24897;53.514;10.482;2022-10-18T05:15:56;130.73;;;60.83;;
23682;SDS011;24897;53.514;10.482;2022-10-18T05:18:42;107.83;;;54.87;;
23682;SDS011;24897;53.514;10.482;2022-10-18T05:21:26;127.80;;;59.33;;
23682;SDS011;24897;53.514;10.482;2022-10-18T05:24:11;132.90;;;60.10;;
23682;SDS011;24897;53.514;10.482;2022-10-18T05:26:55;95.73;;;52.53;;
23682;SDS011;24897;53.514;10.482;2022-10-18T05:29:40;114.43;;;56.87;;
23682;SDS011;24897;53.514;10.482;2022-10-18T05:32:24;128.87;;;58.07;;
23682;SDS011;24897;53.514;10.482;2022-10-18T05:35:08;81.27;;;51.03;;
23682;SDS011;24897;53.514;10.482;2022-10-18T05:37:52;114.03;;;57.50;;
23682;SDS011;24897;53.514;10.482;2022-10-18T05:40:37;118.30;;;57.57;;
23682;SDS011;24897;53.514;10.482;2022-10-18T05:43:21;170.80;;;63.03;;
23682;SDS011;24897;53.514;10.482;2022-10-18T05:46:06;97.60;;;54.13;;
23682;SDS011;24897;53.514;10.482;2022-10-18T05:48:51;178.37;;;64.50;;
23682;SDS011;24897;53.514;10.482;2022-10-18T05:51:35;154.10;;;63.33;;
23682;SDS011;24897;53.514;10.482;2022-10-18T05:54:19;110.83;;;55.73;;
23682;SDS011;24897;53.514;10.482;2022-10-18T05:57:03;131.17;;;58.87;;
23682;SDS011;24897;53.514;10.482;2022-10-18T05:59:47;138.80;;;61.03;;
23682;SDS011;24897;53.514;10.482;2022-10-18T06:02:31;171.03;;;65.57;;
23682;SDS011;24897;53.514;10.482;2022-10-18T06:05:15;91.50;;;54.07;;
23682;SDS011;24897;53.514;10.482;2022-10-18T06:07:59;121.50;;;57.83;;
23682;SDS011;24897;53.514;10.482;2022-10-18T06:10:43;147.43;;;61.47;;
23682;SDS011;24897;53.514;10.482;2022-10-18T06:13:27;143.27;;;60.70;;
23682;SDS011;24897;53.514;10.482;2022-10-18T06:16:12;147.40;;;60.73;;
23682;SDS011;24897;53.514;10.482;2022-10-18T06:18:58;195.20;;;69.47;;
23682;SDS011;24897;53.514;10.482;2022-10-18T06:21:42;117.50;;;56.63;;
23682;SDS011;24897;53.514;10.482;2022-10-18T06:24:26;143.80;;;60.67;;
23682;SDS011;24897;53.514;10.482;2022-10-18T06:27:11;100.80;;;53.63;;
23682;SDS011;24897;53.514;10.482;2022-10-18T06:29:55;106.57;;;54.87;;
23682;SDS011;24897;53.514;10.482;2022-10-18T06:32:39;137.50;;;60.37;;
23682;SDS011;24897;53.514;10.482;2022-10-18T06:35:23;155.33;;;62.30;;
23682;SDS011;24897;53.514;10.482;2022-10-18T06:38:08;113.40;;;57.40;;
23682;SDS011;24897;53.514;10.482;2022-10-18T06:40:53;87.90;;;53.63;;
23682;SDS011;24897;53.514;10.482;2022-10-18T06:43:39;105.47;;;54.20;;
23682;SDS011;24897;53.514;10.482;2022-10-18T06:46:24;145.67;;;61.57;;
23682;SDS011;24897;53.514;10.482;2022-10-18T06:49:08;154.30;;;117.73;;
23682;SDS011;24897;53.514;10.482;2022-10-18T06:51:53;149.50;;;112.77;;
23682;SDS011;24897;53.514;10.482;2022-10-18T06:54:38;164.80;;;117.33;;
23682;SDS011;24897;53.514;10.482;2022-10-18T06:57:22;154.53;;;118.50;;
23682;SDS011;24897;53.514;10.482;2022-10-18T07:00:07;135.33;;;109.93;;
23682;SDS011;24897;53.514;10.482;2022-10-18T07:02:51;137.47;;;109.30;;
23682;SDS011;24897;53.514;10.482;2022-10-18T07:05:37;146.40;;;112.40;;
23682;SDS011;24897;53.514;10.482;2022-10-18T07:08:22;134.33;;;108.70;;
23682;SDS011;24897;53.514;10.482;2022-10-18T07:11:06;165.07;;;113.93;;
23682;SDS011;24897;53.514;10.482;2022-10-18T07:13:58;161.07;;;113.77;;
23682;SDS011;24897;53.514;10.482;2022-10-18T07:16:45;151.83;;;112.13;;
23682;SDS011;24897;53.514;10.482;2022-10-18T07:19:29;154.73;;;112.20;;
23682;SDS011;24897;53.514;10.482;2022-10-18T07:22:13;143.17;;;110.67;;
23682;SDS011;24897;53.514;10.482;2022-10-18T07:24:57;147.93;;;111.23;;
23682;SDS011;24897;53.514;10.482;2022-10-18T07:27:42;126.27;;;108.40;;
23682;SDS011;24897;53.514;10.482;2022-10-18T07:30:26;131.50;;;106.30;;
23682;SDS011;24897;53.514;10.482;2022-10-18T07:33:10;124.93;;;107.03;;
23682;SDS011;24897;53.514;10.482;2022-10-18T07:35:54;118.13;;;105.30;;
23682;SDS011;24897;53.514;10.482;2022-10-18T07:38:38;118.57;;;105.63;;
23682;SDS011;24897;53.514;10.482;2022-10-18T07:41:22;112.00;;;99.87;;
23682;SDS011;24897;53.514;10.482;2022-10-18T07:44:07;106.20;;;95.03;;
23682;SDS011;24897;53.514;10.482;2022-10-18T07:46:52;108.27;;;96.80;;
23682;SDS011;24897;53.514;10.482;2022-10-18T07:49:37;106.93;;;96.10;;
23682;SDS011;24897;53.514;10.482;2022-10-18T07:52:21;125.60;;;105.33;;
23682;SDS011;24897;53.514;10.482;2022-10-18T07:55:06;122.13;;;105.13;;
23682;SDS011;24897;53.514;10.482;2022-10-18T07:57:50;135.10;;;108.63;;
23682;SDS011;24897;53.514;10.482;2022-10-18T08:00:34;122.33;;;106.37;;
23682;SDS011;24897;53.514;10.482;2022-10-18T08:03:19;122.77;;;108.67;;
23682;SDS011;24897;53.514;10.482;2022-10-18T08:06:04;126.83;;;110.67;;
23682;SDS011;24897;53.514;10.482;2022-10-18T08:08:51;130.57;;;111.80;;
23682;SDS011;24897;53.514;10.482;2022-10-18T08:11:35;123.07;;;106.90;;
23682;SDS011;24897;53.514;10.482;2022-10-18T08:14:19;118.13;;;104.57;;
23682;SDS011;24897;53.514;10.482;2022-10-18T08:17:04;125.27;;;102.13;;
23682;SDS011;24897;53.514;10.482;2022-10-18T08:19:48;119.53;;;105.37;;
23682;SDS011;24897;53.514;10.482;2022-10-18T08:22:32;110.20;;;98.20;;
23682;SDS011;24897;53.514;10.482;2022-10-18T08:25:17;119.40;;;102.17;;
23682;SDS011;24897;53.514;10.482;2022-10-18T08:28:01;115.80;;;100.90;;
23682;SDS011;24897;53.514;10.482;2022-10-18T08:30:45;109.90;;;96.67;;
23682;SDS011;24897;53.514;10.482;2022-10-18T08:33:30;112.73;;;96.73;;
23682;SDS011;24897;53.514;10.482;2022-10-18T08:36:15;106.03;;;92.93;;
23682;SDS011;24897;53.514;10.482;2022-10-18T08:39:00;102.40;;;90.53;;
23682;SDS011;24897;53.514;10.482;2022-10-18T08:41:55;104.53;;;93.10;;
23682;SDS011;24897;53.514;10.482;2022-10-18T08:44:44;112.83;;;95.80;;
23682;SDS011;24897;53.514;10.482;2022-10-18T08:47:35;112.67;;;98.60;;
23682;SDS011;24897;53.514;10.482;2022-10-18T08:50:24;102.47;;;91.47;;
23682;SDS011;24897;53.514;10.482;2022-10-18T08:53:16;86.17;;;50.37;;
23682;SDS011;24897;53.514;10.482;2022-10-18T08:56:18;84.03;;;51.43;;
23682;SDS011;24897;53.514;10.482;2022-10-18T08:59:10;82.80;;;50.53;;
23682;SDS011;24897;53.514;10.482;2022-10-18T09:02:01;75.77;;;49.93;;
23682;SDS011;24897;53.514;10.482;2022-10-18T09:19:46;69.47;;;44.50;;
23682;SDS011;24897;53.514;10.482;2022-10-18T09:22:55;69.00;;;43.13;;
23682;SDS011;24897;53.514;10.482;2022-10-18T09:25:48;72.63;;;43.20;;
23682;SDS011;24897;53.514;10.482;2022-10-18T09:31:51;59.13;;;40.67;;
23682;SDS011;24897;53.514;10.482;2022-10-18T09:37:31;70.83;;;44.43;;
23682;SDS011;24897;53.514;10.482;2022-10-18T09:43:23;69.43;;;43.03;;
23682;SDS011;24897;53.514;10.482;2022-10-18T09:46:07;62.73;;;41.90;;
23682;SDS011;24897;53.514;10.482;2022-10-18T09:48:53;68.83;;;42.33;;
23682;SDS011;24897;53.514;10.482;2022-10-18T09:51:41;62.53;;;39.87;;
23682;SDS011;24897;53.514;10.482;2022-10-18T09:54:30;51.33;;;39.17;;
23682;SDS011;24897;53.514;10.482;2022-10-18T09:57:34;48.77;;;37.83;;
23682;SDS011;24897;53.514;10.482;2022-10-18T10:00:21;45.40;;;34.13;;
23682;SDS011;24897;53.514;10.482;2022-10-18T10:03:30;38.67;;;32.63;;
23682;SDS011;24897;53.514;10.482;2022-10-18T10:09:13;39.87;;;31.93;;
23682;SDS011;24897;53.514;10.482;2022-10-18T10:11:59;35.03;;;31.00;;
23682;SDS011;24897;53.514;10.482;2022-10-18T10:14:44;37.27;;;30.20;;
23682;SDS011;24897;53.514;10.482;2022-10-18T10:17:29;39.67;;;31.40;;
23682;SDS011;24897;53.514;10.482;2022-10-18T10:20:17;34.73;;;29.93;;
23682;SDS011;24897;53.514;10.482;2022-10-18T10:23:04;34.40;;;30.20;;
23682;SDS011;24897;53.514;10.482;2022-10-18T10:26:32;32.53;;;26.67;;
23682;SDS011;24897;53.514;10.482;2022-10-18T10:32:44;31.97;;;25.87;;
23682;SDS011;24897;53.514;10.482;2022-10-18T10:35:34;27.57;;;23.80;;
23682;SDS011;24897;53.514;10.482;2022-10-18T10:38:26;34.00;;;23.97;;
23682;SDS011;24897;53.514;10.482;2022-10-18T10:41:19;30.73;;;23.50;;
23682;SDS011;24897;53.514;10.482;2022-10-18T10:44:12;29.30;;;22.77;;
23682;SDS011;24897;53.514;10.482;2022-10-18T10:47:02;29.57;;;22.50;;
23682;SDS011;24897;53.514;10.482;2022-10-18T10:49:47;26.37;;;20.80;;
23682;SDS011;24897;53.514;10.482;2022-10-18T10:52:31;26.73;;;21.63;;
23682;SDS011;24897;53.514;10.482;2022-10-18T10:55:17;29.10;;;23.17;;
23682;SDS011;24897;53.514;10.482;2022-10-18T10:58:13;28.47;;;23.33;;
23682;SDS011;24897;53.514;10.482;2022-10-18T11:01:14;24.47;;;20.40;;
23682;SDS011;24897;53.514;10.482;2022-10-18T11:04:21;25.60;;;19.77;;
23682;SDS011;24897;53.514;10.482;2022-10-18T11:09:56;20.97;;;18.27;;
23682;SDS011;24897;53.514;10.482;2022-10-18T11:16:12;24.20;;;21.63;;
23682;SDS011;24897;53.514;10.482;2022-10-18T11:20:04;23.43;;;20.93;;
23682;SDS011;24897;53.514;10.482;2022-10-18T11:22:23;24.37;;;20.80;;
23682;SDS011;24897;53.514;10.482;2022-10-18T11:25:11;22.13;;;19.93;;
23682;SDS011;24897;53.514;10.482;2022-10-18T11:31:12;22.33;;;18.47;;
23682;SDS011;24897;53.514;10.482;2022-10-18T11:40:27;20.83;;;18.60;;
23682;SDS011;24897;53.514;10.482;2022-10-18T12:01:37;20.60;;;18.40;;
23682;SDS011;24897;53.514;10.482;2022-10-18T12:04:24;21.60;;;18.57;;
23682;SDS011;24897;53.514;10.482;2022-10-18T12:07:14;20.17;;;18.13;;
23682;SDS011;24897;53.514;10.482;2022-10-18T12:10:03;20.37;;;18.33;;
23682;SDS011;24897;53.514;10.482;2022-10-18T12:12:52;22.70;;;18.33;;
23682;SDS011;24897;53.514;10.482;2022-10-18T12:15:40;21.77;;;18.40;;
23682;SDS011;24897;53.514;10.482;2022-10-18T12:18:26;23.07;;;19.60;;
23682;SDS011;24897;53.514;10.482;2022-10-18T12:21:12;23.20;;;18.40;;
23682;SDS011;24897;53.514;10.482;2022-10-18T12:27:12;20.60;;;18.60;;
23682;SDS011;24897;53.514;10.482;2022-10-18T12:30:00;20.50;;;18.50;;
23682;SDS011;24897;53.514;10.482;2022-10-18T12:32:53;24.10;;;19.17;;
23682;SDS011;24897;53.514;10.482;2022-10-18T12:38:42;21.07;;;18.87;;
23682;SDS011;24897;53.514;10.482;2022-10-18T12:41:31;21.87;;;19.20;;
23682;SDS011;24897;53.514;10.482;2022-10-18T12:44:18;21.50;;;19.20;;
23682;SDS011;24897;53.514;10.482;2022-10-18T12:47:05;21.43;;;18.70;;
23682;SDS011;24897;53.514;10.482;2022-10-18T12:50:00;23.33;;;19.23;;
23682;SDS011;24897;53.514;10.482;2022-10-18T12:53:00;21.93;;;18.63;;
23682;SDS011;24897;53.514;10.482;2022-10-18T12:55:55;19.27;;;17.30;;
23682;SDS011;24897;53.514;10.482;2022-10-18T13:04:42;20.27;;;17.93;;
23682;SDS011;24897;53.514;10.482;2022-10-18T13:10:30;19.50;;;17.60;;
23682;SDS011;24897;53.514;10.482;2022-10-18T13:13:19;18.20;;;16.40;;
23682;SDS011;24897;53.514;10.482;2022-10-18T13:16:20;18.90;;;17.00;;
23682;SDS011;24897;53.514;10.482;2022-10-18T13:19:38;18.90;;;17.10;;
23682;SDS011;24897;53.514;10.482;2022-10-18T13:32:05;20.37;;;17.40;;
23682;SDS011;24897;53.514;10.482;2022-10-18T13:44:30;18.60;;;16.80;;
23682;SDS011;24897;53.514;10.482;2022-10-18T13:47:33;19.33;;;17.10;;
23682;SDS011;24897;53.514;10.482;2022-10-18T13:50:23;19.93;;;16.33;;
23682;SDS011;24897;53.514;10.482;2022-10-18T13:53:33;18.17;;;16.20;;
23682;SDS011;24897;53.514;10.482;2022-10-18T14:08:34;19.57;;;16.70;;
23682;SDS011;24897;53.514;10.482;2022-10-18T14:11:45;18.00;;;16.20;;
23682;SDS011;24897;53.514;10.482;2022-10-18T14:14:45;18.57;;;16.07;;
23682;SDS011;24897;53.514;10.482;2022-10-18T14:17:55;18.47;;;16.53;;
23682;SDS011;24897;53.514;10.482;2022-10-18T14:20:51;18.53;;;16.20;;
23682;SDS011;24897;53.514;10.482;2022-10-18T14:23:41;19.60;;;17.53;;
23682;SDS011;24897;53.514;10.482;2022-10-18T14:26:30;18.97;;;16.97;;
23682;SDS011;24897;53.514;10.482;2022-10-18T14:29:16;19.00;;;16.73;;
23682;SDS011;24897;53.514;10.482;2022-10-18T14:32:09;18.73;;;16.67;;
23682;SDS011;24897;53.514;10.482;2022-10-18T14:35:03;20.17;;;16.70;;
23682;SDS011;24897;53.514;10.482;2022-10-18T14:38:13;18.63;;;16.63;;
23682;SDS011;24897;53.514;10.482;2022-10-18T14:41:04;21.60;;;16.73;;
23682;SDS011;24897;53.514;10.482;2022-10-18T14:43:50;18.63;;;16.70;;
23682;SDS011;24897;53.514;10.482;2022-10-18T14:46:40;18.73;;;16.73;;
23682;SDS011;24897;53.514;10.482;2022-10-18T14:49:29;21.57;;;17.13;;
23682;SDS011;24897;53.514;10.482;2022-10-18T14:52:17;20.30;;;18.20;;
23682;SDS011;24897;53.514;10.482;2022-10-18T14:55:15;20.97;;;19.03;;
23682;SDS011;24897;53.514;10.482;2022-10-18T14:58:12;21.03;;;18.50;;
23682;SDS011;24897;53.514;10.482;2022-10-18T15:00:58;21.07;;;18.90;;
23682;SDS011;24897;53.514;10.482;2022-10-18T15:03:42;20.83;;;18.70;;
23682;SDS011;24897;53.514;10.482;2022-10-18T15:06:27;21.03;;;18.80;;
23682;SDS011;24897;53.514;10.482;2022-10-18T15:09:11;22.30;;;18.33;;
23682;SDS011;24897;53.514;10.482;2022-10-18T15:11:59;19.90;;;17.80;;
23682;SDS011;24897;53.514;10.482;2022-10-18T15:14:46;22.50;;;18.20;;
23682;SDS011;24897;53.514;10.482;2022-10-18T15:17:31;22.83;;;18.70;;
23682;SDS011;24897;53.514;10.482;2022-10-18T15:20:17;26.20;;;19.13;;
23682;SDS011;24897;53.514;10.482;2022-10-18T15:26:18;21.43;;;18.83;;
23682;SDS011;24897;53.514;10.482;2022-10-18T15:29:14;24.50;;;18.80;;
23682;SDS011;24897;53.514;10.482;2022-10-18T15:32:11;23.37;;;18.80;;
23682;SDS011;24897;53.514;10.482;2022-10-18T15:35:15;23.53;;;19.60;;
23682;SDS011;24897;53.514;10.482;2022-10-18T15:47:17;22.13;;;19.50;;
23682;SDS011;24897;53.514;10.482;2022-10-18T15:50:04;26.27;;;20.67;;
23682;SDS011;24897;53.514;10.482;2022-10-18T15:59:22;24.70;;;20.47;;
23682;SDS011;24897;53.514;10.482;2022-10-18T16:02:11;25.77;;;20.80;;
23682;SDS011;24897;53.514;10.482;2022-10-18T16:05:00;24.47;;;21.47;;
23682;SDS011;24897;53.514;10.482;2022-10-18T16:07:49;23.10;;;20.47;;
23682;SDS011;24897;53.514;10.482;2022-10-18T16:10:37;23.53;;;21.00;;
23682;SDS011;24897;53.514;10.482;2022-10-18T16:13:20;25.40;;;21.13;;
23682;SDS011;24897;53.514;10.482;2022-10-18T16:16:05;28.67;;;21.20;;
23682;SDS011;24897;53.514;10.482;2022-10-18T16:18:50;24.07;;;21.77;;
23682;SDS011;24897;53.514;10.482;2022-10-18T16:21:35;27.83;;;22.20;;
23682;SDS011;24897;53.514;10.482;2022-10-18T16:24:21;25.70;;;21.40;;
23682;SDS011;24897;53.514;10.482;2022-10-18T16:27:05;24.90;;;22.20;;
23682;SDS011;24897;53.514;10.482;2022-10-18T16:29:50;25.43;;;22.73;;
23682;SDS011;24897;53.514;10.482;2022-10-18T16:32:34;24.43;;;21.93;;
23682;SDS011;24897;53.514;10.482;2022-10-18T16:35:19;24.83;;;22.20;;
23682;SDS011;24897;53.514;10.482;2022-10-18T16:38:03;25.90;;;22.87;;
23682;SDS011;24897;53.514;10.482;2022-10-18T16:40:47;25.80;;;23.27;;
23682;SDS011;24897;53.514;10.482;2022-10-18T16:43:32;26.77;;;23.20;;
23682;SDS011;24897;53.514;10.482;2022-10-18T16:46:18;27.73;;;25.00;;
23682;SDS011;24897;53.514;10.482;2022-10-18T16:49:04;25.83;;;23.13;;
23682;SDS011;24897;53.514;10.482;2022-10-18T16:51:49;26.80;;;24.00;;
23682;SDS011;24897;53.514;10.482;2022-10-18T16:54:33;25.40;;;22.77;;
23682;SDS011;24897;53.514;10.482;2022-10-18T16:57:18;26.53;;;23.73;;
23682;SDS011;24897;53.514;10.482;2022-10-18T17:00:03;25.40;;;22.83;;
23682;SDS011;24897;53.514;10.482;2022-10-18T17:02:48;26.03;;;23.23;;
23682;SDS011;24897;53.514;10.482;2022-10-18T17:05:32;27.57;;;23.73;;
23682;SDS011;24897;53.514;10.482;2022-10-18T17:08:18;25.77;;;23.23;;
23682;SDS011;24897;53.514;10.482;2022-10-18T17:11:04;27.37;;;24.60;;
23682;SDS011;24897;53.514;10.482;2022-10-18T17:13:49;26.60;;;23.73;;
23682;SDS011;24897;53.514;10.482;2022-10-18T17:16:33;28.27;;;25.17;;
23682;SDS011;24897;53.514;10.482;2022-10-18T17:19:19;31.13;;;25.20;;
23682;SDS011;24897;53.514;10.482;2022-10-18T17:22:03;28.53;;;25.83;;
23682;SDS011;24897;53.514;10.482;2022-10-18T17:24:47;29.53;;;26.67;;
23682;SDS011;24897;53.514;10.482;2022-10-18T17:27:32;41.90;;;34.60;;
23682;SDS011;24897;53.514;10.482;2022-10-18T17:30:16;32.80;;;28.87;;
23682;SDS011;24897;53.514;10.482;2022-10-18T17:33:00;29.70;;;24.60;;
23682;SDS011;24897;53.514;10.482;2022-10-18T17:35:44;30.47;;;24.83;;
23682;SDS011;24897;53.514;10.482;2022-10-18T17:38:30;25.60;;;22.90;;
23682;SDS011;24897;53.514;10.482;2022-10-18T17:41:14;27.03;;;24.33;;
23682;SDS011;24897;53.514;10.482;2022-10-18T17:43:58;26.10;;;23.33;;
23682;SDS011;24897;53.514;10.482;2022-10-18T17:46:45;28.73;;;23.73;;
23682;SDS011;24897;53.514;10.482;2022-10-18T17:49:29;25.60;;;23.10;;
23682;SDS011;24897;53.514;10.482;2022-10-18T17:52:14;26.73;;;23.97;;
23682;SDS011;24897;53.514;10.482;2022-10-18T17:54:58;25.90;;;23.30;;
23682;SDS011;24897;53.514;10.482;2022-10-18T17:57:43;27.87;;;23.93;;
23682;SDS011;24897;53.514;10.482;2022-10-18T18:00:27;25.00;;;22.47;;
23682;SDS011;24897;53.514;10.482;2022-10-18T18:03:11;29.17;;;22.83;;
23682;SDS011;24897;53.514;10.482;2022-10-18T18:05:56;26.57;;;22.30;;
23682;SDS011;24897;53.514;10.482;2022-10-18T18:08:40;28.00;;;21.60;;
23682;SDS011;24897;53.514;10.482;2022-10-18T18:11:24;24.37;;;21.87;;
23682;SDS011;24897;53.514;10.482;2022-10-18T18:14:09;24.67;;;22.07;;
23682;SDS011;24897;53.514;10.482;2022-10-18T18:16:54;25.93;;;22.97;;
23682;SDS011;24897;53.514;10.482;2022-10-18T18:19:38;24.97;;;22.30;;
23682;SDS011;24897;53.514;10.482;2022-10-18T18:22:22;26.30;;;23.27;;
23682;SDS011;24897;53.514;10.482;2022-10-18T18:25:06;26.57;;;23.70;;
23682;SDS011;24897;53.514;10.482;2022-10-18T18:27:52;26.70;;;23.83;;
23682;SDS011;24897;53.514;10.482;2022-10-18T18:30:38;26.67;;;23.87;;
23682;SDS011;24897;53.514;10.482;2022-10-18T18:33:22;25.57;;;22.83;;
23682;SDS011;24897;53.514;10.482;2022-10-18T18:36:06;25.23;;;22.53;;